sensor_id;sensor_type;location;lat;lon;timestamp;temperature;humidity
4374;DHT22;2201;51.100;6.814;2023-02-04T00:00:10;8.60;98.20
4374;DHT22;2201;51.100;6.814;2023-02-04T00:02:38;8.60;98.20
4374;DHT22;2201;51.100;6.814;2023-02-04T00:05:05;8.60;98.20
4374;DHT22;2201;51.100;6.814;2023-02-04T00:07:33;8.60;98.20
4374;DHT22;2201;51.100;6.814;2023-02-04T00:09:59;8.60;98.20
4374;DHT22;2201;51.100;6.814;2023-02-04T00:12:26;8.60;98.20
4374;DHT22;2201;51.100;6.814;2023-02-04T00:14:55;8.60;98.20
4374;DHT22;2201;51.100;6.814;2023-02-04T00:17:22;8.60;98.20
4374;DHT22;2201;51.100;6.814;2023-02-04T00:19:49;8.50;98.20
4374;DHT22;2201;51.100;6.814;2023-02-04T00:22:16;8.50;98.20
4374;DHT22;2201;51.100;6.814;2023-02-04T00:24:43;8.50;98.20
4374;DHT22;2201;51.100;6.814;2023-02-04T00:27:14;8.50;98.20
4374;DHT22;2201;51.100;6.814;2023-02-04T00:29:41;8.50;98.20
4374;DHT22;2201;51.100;6.814;2023-02-04T00:32:09;8.50;98.20
4374;DHT22;2201;51.100;6.814;2023-02-04T00:34:36;8.50;98.20
4374;DHT22;2201;51.100;6.814;2023-02-04T00:37:03;8.50;98.20
4374;DHT22;2201;51.100;6.814;2023-02-04T00:39:30;8.50;98.20
4374;DHT22;2201;51.100;6.814;2023-02-04T00:41:57;8.50;98.20
4374;DHT22;2201;51.100;6.814;2023-02-04T00:44:24;8.50;98.20
4374;DHT22;2201;51.100;6.814;2023-02-04T00:46:51;8.40;98.20
4374;DHT22;2201;51.100;6.814;2023-02-04T00:49:19;8.40;98.20
4374;DHT22;2201;51.100;6.814;2023-02-04T00:51:46;8.40;98.20
4374;DHT22;2201;51.100;6.814;2023-02-04T00:54:13;8.40;98.20
4374;DHT22;2201;51.100;6.814;2023-02-04T00:56:41;8.40;98.20
4374;DHT22;2201;51.100;6.814;2023-02-04T00:59:09;8.40;98.20
4374;DHT22;2201;51.100;6.814;2023-02-04T01:01:36;8.40;98.20
4374;DHT22;2201;51.100;6.814;2023-02-04T01:04:03;8.40;98.20
4374;DHT22;2201;51.100;6.814;2023-02-04T01:06:32;8.40;98.20
4374;DHT22;2201;51.100;6.814;2023-02-04T01:08:59;8.40;98.20
4374;DHT22;2201;51.100;6.814;2023-02-04T01:11:26;8.40;98.20
4374;DHT22;2201;51.100;6.814;2023-02-04T01:13:53;8.40;98.20
4374;DHT22;2201;51.100;6.814;2023-02-04T01:16:20;8.40;98.20
4374;DHT22;2201;51.100;6.814;2023-02-04T01:18:47;8.40;98.20
4374;DHT22;2201;51.100;6.814;2023-02-04T01:21:14;8.30;98.20
4374;DHT22;2201;51.100;6.814;2023-02-04T01:23:42;8.30;98.20
4374;DHT22;2201;51.100;6.814;2023-02-04T01:26:09;8.30;98.20
4374;DHT22;2201;51.100;6.814;2023-02-04T01:28:36;8.30;98.20
4374;DHT22;2201;51.100;6.814;2023-02-04T01:31:03;8.30;98.20
4374;DHT22;2201;51.100;6.814;2023-02-04T01:33:30;8.30;98.20
4374;DHT22;2201;51.100;6.814;2023-02-04T01:35:57;8.30;98.20
4374;DHT22;2201;51.100;6.814;2023-02-04T01:38:24;8.20;98.20
4374;DHT22;2201;51.100;6.814;2023-02-04T01:40:52;8.30;98.20
4374;DHT22;2201;51.100;6.814;2023-02-04T01:43:20;8.20;98.20
4374;DHT22;2201;51.100;6.814;2023-02-04T01:45:48;8.20;98.20
4374;DHT22;2201;51.100;6.814;2023-02-04T01:48:15;8.20;98.20
4374;DHT22;2201;51.100;6.814;2023-02-04T01:50:45;8.20;98.20
4374;DHT22;2201;51.100;6.814;2023-02-04T01:53:13;8.20;98.20
4374;DHT22;2201;51.100;6.814;2023-02-04T01:55:40;8.20;98.20
4374;DHT22;2201;51.100;6.814;2023-02-04T01:58:10;8.20;98.20
4374;DHT22;2201;51.100;6.814;2023-02-04T02:00:38;8.10;98.20
4374;DHT22;2201;51.100;6.814;2023-02-04T02:03:05;8.10;98.20
4374;DHT22;2201;51.100;6.814;2023-02-04T02:05:37;8.10;98.20
4374;DHT22;2201;51.100;6.814;2023-02-04T02:08:07;8.10;98.20
4374;DHT22;2201;51.100;6.814;2023-02-04T02:10:35;8.10;98.20
4374;DHT22;2201;51.100;6.814;2023-02-04T02:13:03;8.10;98.20
4374;DHT22;2201;51.100;6.814;2023-02-04T02:15:32;8.10;98.20
4374;DHT22;2201;51.100;6.814;2023-02-04T02:17:59;8.10;98.20
4374;DHT22;2201;51.100;6.814;2023-02-04T02:20:26;8.10;98.20
4374;DHT22;2201;51.100;6.814;2023-02-04T02:23:03;8.10;98.20
4374;DHT22;2201;51.100;6.814;2023-02-04T02:25:33;8.10;98.20
4374;DHT22;2201;51.100;6.814;2023-02-04T02:28:01;8.00;98.20
4374;DHT22;2201;51.100;6.814;2023-02-04T02:30:28;8.10;98.20
4374;DHT22;2201;51.100;6.814;2023-02-04T02:32:56;8.00;98.20
4374;DHT22;2201;51.100;6.814;2023-02-04T02:35:23;8.10;98.20
4374;DHT22;2201;51.100;6.814;2023-02-04T02:37:50;8.10;98.20
4374;DHT22;2201;51.100;6.814;2023-02-04T02:40:18;8.00;98.20
4374;DHT22;2201;51.100;6.814;2023-02-04T02:42:48;8.00;98.20
4374;DHT22;2201;51.100;6.814;2023-02-04T02:45:24;8.00;98.20
4374;DHT22;2201;51.100;6.814;2023-02-04T02:47:52;8.00;98.20
4374;DHT22;2201;51.100;6.814;2023-02-04T02:50:22;8.00;98.20
4374;DHT22;2201;51.100;6.814;2023-02-04T02:52:50;8.00;98.20
4374;DHT22;2201;51.100;6.814;2023-02-04T02:55:19;8.00;98.20
4374;DHT22;2201;51.100;6.814;2023-02-04T02:57:49;8.00;98.20
4374;DHT22;2201;51.100;6.814;2023-02-04T03:00:20;8.00;98.20
4374;DHT22;2201;51.100;6.814;2023-02-04T03:02:53;8.00;98.20
4374;DHT22;2201;51.100;6.814;2023-02-04T03:05:21;7.90;98.20
4374;DHT22;2201;51.100;6.814;2023-02-04T03:07:48;7.90;98.20
4374;DHT22;2201;51.100;6.814;2023-02-04T03:10:15;7.90;98.20
4374;DHT22;2201;51.100;6.814;2023-02-04T03:12:43;7.90;98.20
4374;DHT22;2201;51.100;6.814;2023-02-04T03:15:12;7.90;98.20
4374;DHT22;2201;51.100;6.814;2023-02-04T03:17:40;7.90;98.20
4374;DHT22;2201;51.100;6.814;2023-02-04T03:20:08;7.90;98.20
4374;DHT22;2201;51.100;6.814;2023-02-04T03:22:35;7.90;98.20
4374;DHT22;2201;51.100;6.814;2023-02-04T03:25:02;7.90;98.20
4374;DHT22;2201;51.100;6.814;2023-02-04T03:27:29;7.90;98.20
4374;DHT22;2201;51.100;6.814;2023-02-04T03:29:56;7.90;98.20
4374;DHT22;2201;51.100;6.814;2023-02-04T03:32:25;7.90;98.20
4374;DHT22;2201;51.100;6.814;2023-02-04T03:34:52;7.90;98.20
4374;DHT22;2201;51.100;6.814;2023-02-04T03:37:19;7.80;98.20
4374;DHT22;2201;51.100;6.814;2023-02-04T03:39:45;7.80;98.20
4374;DHT22;2201;51.100;6.814;2023-02-04T03:42:12;7.80;98.20
4374;DHT22;2201;51.100;6.814;2023-02-04T03:44:39;7.80;98.20
4374;DHT22;2201;51.100;6.814;2023-02-04T03:47:06;7.80;98.20
4374;DHT22;2201;51.100;6.814;2023-02-04T03:49:34;7.80;98.20
4374;DHT22;2201;51.100;6.814;2023-02-04T03:52:02;7.80;98.20
4374;DHT22;2201;51.100;6.814;2023-02-04T03:54:29;7.70;98.20
4374;DHT22;2201;51.100;6.814;2023-02-04T03:56:56;7.70;98.20
4374;DHT22;2201;51.100;6.814;2023-02-04T03:59:23;7.70;98.20
4374;DHT22;2201;51.100;6.814;2023-02-04T04:01:50;7.70;98.20
4374;DHT22;2201;51.100;6.814;2023-02-04T04:04:17;7.70;98.20
4374;DHT22;2201;51.100;6.814;2023-02-04T04:06:46;7.70;98.20
4374;DHT22;2201;51.100;6.814;2023-02-04T04:09:13;7.70;98.20
4374;DHT22;2201;51.100;6.814;2023-02-04T04:11:40;7.70;98.20
4374;DHT22;2201;51.100;6.814;2023-02-04T04:14:07;7.70;98.20
4374;DHT22;2201;51.100;6.814;2023-02-04T04:16:34;7.60;98.20
4374;DHT22;2201;51.100;6.814;2023-02-04T04:19:01;7.60;98.20
4374;DHT22;2201;51.100;6.814;2023-02-04T04:21:28;7.60;98.20
4374;DHT22;2201;51.100;6.814;2023-02-04T04:23:57;7.60;98.20
4374;DHT22;2201;51.100;6.814;2023-02-04T04:26:24;7.60;98.20
4374;DHT22;2201;51.100;6.814;2023-02-04T04:28:51;7.60;98.20
4374;DHT22;2201;51.100;6.814;2023-02-04T04:31:18;7.60;98.20
4374;DHT22;2201;51.100;6.814;2023-02-04T04:33:45;7.60;98.20
4374;DHT22;2201;51.100;6.814;2023-02-04T04:36:12;7.50;98.20
4374;DHT22;2201;51.100;6.814;2023-02-04T04:38:40;7.50;98.20
4374;DHT22;2201;51.100;6.814;2023-02-04T04:41:09;7.50;98.20
4374;DHT22;2201;51.100;6.814;2023-02-04T04:43:36;7.50;98.20
4374;DHT22;2201;51.100;6.814;2023-02-04T04:46:03;7.50;98.20
4374;DHT22;2201;51.100;6.814;2023-02-04T04:48:30;7.50;98.20
4374;DHT22;2201;51.100;6.814;2023-02-04T04:50:57;7.50;98.20
4374;DHT22;2201;51.100;6.814;2023-02-04T04:53:24;7.50;98.20
4374;DHT22;2201;51.100;6.814;2023-02-04T04:55:51;7.50;98.20
4374;DHT22;2201;51.100;6.814;2023-02-04T04:58:20;7.40;98.20
4374;DHT22;2201;51.100;6.814;2023-02-04T05:00:47;7.50;98.20
4374;DHT22;2201;51.100;6.814;2023-02-04T05:03:14;7.40;98.20
4374;DHT22;2201;51.100;6.814;2023-02-04T05:05:41;7.40;98.20
4374;DHT22;2201;51.100;6.814;2023-02-04T05:08:09;7.40;98.20
4374;DHT22;2201;51.100;6.814;2023-02-04T05:10:38;7.40;98.20
4374;DHT22;2201;51.100;6.814;2023-02-04T05:13:05;7.40;98.20
4374;DHT22;2201;51.100;6.814;2023-02-04T05:15:34;7.40;98.20
4374;DHT22;2201;51.100;6.814;2023-02-04T05:18:01;7.40;98.20
4374;DHT22;2201;51.100;6.814;2023-02-04T05:20:28;7.40;98.20
4374;DHT22;2201;51.100;6.814;2023-02-04T05:22:55;7.40;98.20
4374;DHT22;2201;51.100;6.814;2023-02-04T05:25:26;7.40;98.20
4374;DHT22;2201;51.100;6.814;2023-02-04T05:27:53;7.40;98.20
4374;DHT22;2201;51.100;6.814;2023-02-04T05:30:20;7.30;98.20
4374;DHT22;2201;51.100;6.814;2023-02-04T05:32:48;7.30;98.20
4374;DHT22;2201;51.100;6.814;2023-02-04T05:35:15;7.30;98.20
4374;DHT22;2201;51.100;6.814;2023-02-04T05:37:42;7.30;98.20
4374;DHT22;2201;51.100;6.814;2023-02-04T05:40:10;7.30;98.20
4374;DHT22;2201;51.100;6.814;2023-02-04T05:42:37;7.30;98.20
4374;DHT22;2201;51.100;6.814;2023-02-04T05:45:05;7.30;98.20
4374;DHT22;2201;51.100;6.814;2023-02-04T05:47:32;7.30;98.20
4374;DHT22;2201;51.100;6.814;2023-02-04T05:50:00;7.20;98.20
4374;DHT22;2201;51.100;6.814;2023-02-04T05:52:27;7.20;98.20
4374;DHT22;2201;51.100;6.814;2023-02-04T05:55:00;7.20;98.20
4374;DHT22;2201;51.100;6.814;2023-02-04T05:57:27;7.20;98.20
4374;DHT22;2201;51.100;6.814;2023-02-04T05:59:54;7.20;98.20
4374;DHT22;2201;51.100;6.814;2023-02-04T06:02:21;7.20;98.20
4374;DHT22;2201;51.100;6.814;2023-02-04T06:04:48;7.20;98.20
4374;DHT22;2201;51.100;6.814;2023-02-04T06:07:17;7.20;98.20
4374;DHT22;2201;51.100;6.814;2023-02-04T06:09:44;7.20;98.20
4374;DHT22;2201;51.100;6.814;2023-02-04T06:12:14;7.20;98.20
4374;DHT22;2201;51.100;6.814;2023-02-04T06:14:41;7.20;98.20
4374;DHT22;2201;51.100;6.814;2023-02-04T06:17:08;7.20;98.20
4374;DHT22;2201;51.100;6.814;2023-02-04T06:19:35;7.20;98.20
4374;DHT22;2201;51.100;6.814;2023-02-04T06:22:02;7.20;98.20
4374;DHT22;2201;51.100;6.814;2023-02-04T06:24:30;7.20;98.20
4374;DHT22;2201;51.100;6.814;2023-02-04T06:26:57;7.20;98.20
4374;DHT22;2201;51.100;6.814;2023-02-04T06:29:24;7.20;98.20
4374;DHT22;2201;51.100;6.814;2023-02-04T06:31:51;7.10;98.20
4374;DHT22;2201;51.100;6.814;2023-02-04T06:34:18;7.10;98.20
4374;DHT22;2201;51.100;6.814;2023-02-04T06:36:45;7.10;98.20
4374;DHT22;2201;51.100;6.814;2023-02-04T06:39:12;7.10;98.20
4374;DHT22;2201;51.100;6.814;2023-02-04T06:41:40;7.10;98.20
4374;DHT22;2201;51.100;6.814;2023-02-04T06:44:07;7.10;98.20
4374;DHT22;2201;51.100;6.814;2023-02-04T06:46:34;7.10;98.20
4374;DHT22;2201;51.100;6.814;2023-02-04T06:49:01;7.10;98.20
4374;DHT22;2201;51.100;6.814;2023-02-04T06:51:28;7.20;98.20
4374;DHT22;2201;51.100;6.814;2023-02-04T06:53:56;7.10;98.20
4374;DHT22;2201;51.100;6.814;2023-02-04T06:56:24;7.10;98.20
4374;DHT22;2201;51.100;6.814;2023-02-04T06:58:55;7.10;98.20
4374;DHT22;2201;51.100;6.814;2023-02-04T07:01:22;7.10;98.20
4374;DHT22;2201;51.100;6.814;2023-02-04T07:03:49;7.10;98.20
4374;DHT22;2201;51.100;6.814;2023-02-04T07:06:16;7.10;98.20
4374;DHT22;2201;51.100;6.814;2023-02-04T07:08:43;7.10;98.20
4374;DHT22;2201;51.100;6.814;2023-02-04T07:11:12;7.10;98.20
4374;DHT22;2201;51.100;6.814;2023-02-04T07:16:33;7.10;98.20
4374;DHT22;2201;51.100;6.814;2023-02-04T07:19:00;7.10;98.20
4374;DHT22;2201;51.100;6.814;2023-02-04T07:21:27;7.10;98.20
4374;DHT22;2201;51.100;6.814;2023-02-04T07:23:55;7.10;98.20
4374;DHT22;2201;51.100;6.814;2023-02-04T07:26:22;7.00;98.20
4374;DHT22;2201;51.100;6.814;2023-02-04T07:28:50;7.00;98.20
4374;DHT22;2201;51.100;6.814;2023-02-04T07:31:18;7.00;98.20
4374;DHT22;2201;51.100;6.814;2023-02-04T07:33:46;7.00;98.20
4374;DHT22;2201;51.100;6.814;2023-02-04T07:36:13;7.00;98.20
4374;DHT22;2201;51.100;6.814;2023-02-04T07:38:40;7.00;98.20
4374;DHT22;2201;51.100;6.814;2023-02-04T07:41:07;7.00;98.20
4374;DHT22;2201;51.100;6.814;2023-02-04T07:43:34;7.10;98.20
4374;DHT22;2201;51.100;6.814;2023-02-04T07:46:01;7.10;98.20
4374;DHT22;2201;51.100;6.814;2023-02-04T07:48:28;7.10;98.20
4374;DHT22;2201;51.100;6.814;2023-02-04T07:50:56;7.10;98.20
4374;DHT22;2201;51.100;6.814;2023-02-04T07:53:23;7.10;98.20
4374;DHT22;2201;51.100;6.814;2023-02-04T07:55:50;7.10;98.20
4374;DHT22;2201;51.100;6.814;2023-02-04T07:58:17;7.10;98.20
4374;DHT22;2201;51.100;6.814;2023-02-04T08:00:44;7.20;98.20
4374;DHT22;2201;51.100;6.814;2023-02-04T08:03:14;7.20;98.20
4374;DHT22;2201;51.100;6.814;2023-02-04T08:05:41;7.20;98.20
4374;DHT22;2201;51.100;6.814;2023-02-04T08:08:09;7.20;98.20
4374;DHT22;2201;51.100;6.814;2023-02-04T08:10:36;7.30;98.20
4374;DHT22;2201;51.100;6.814;2023-02-04T08:13:03;7.30;98.20
4374;DHT22;2201;51.100;6.814;2023-02-04T08:15:30;7.40;98.20
4374;DHT22;2201;51.100;6.814;2023-02-04T08:17:58;7.40;98.20
4374;DHT22;2201;51.100;6.814;2023-02-04T08:20:25;7.40;98.20
4374;DHT22;2201;51.100;6.814;2023-02-04T08:22:52;7.50;98.20
4374;DHT22;2201;51.100;6.814;2023-02-04T08:25:20;7.50;98.20
4374;DHT22;2201;51.100;6.814;2023-02-04T08:27:47;7.50;98.20
4374;DHT22;2201;51.100;6.814;2023-02-04T08:30:14;7.60;98.20
4374;DHT22;2201;51.100;6.814;2023-02-04T08:32:42;7.60;98.20
4374;DHT22;2201;51.100;6.814;2023-02-04T08:35:09;7.60;98.20
4374;DHT22;2201;51.100;6.814;2023-02-04T08:37:36;7.70;98.20
4374;DHT22;2201;51.100;6.814;2023-02-04T08:40:04;7.70;98.20
4374;DHT22;2201;51.100;6.814;2023-02-04T08:42:33;7.80;98.20
4374;DHT22;2201;51.100;6.814;2023-02-04T08:45:00;7.80;98.20
4374;DHT22;2201;51.100;6.814;2023-02-04T08:47:28;7.80;98.20
4374;DHT22;2201;51.100;6.814;2023-02-04T08:49:55;7.90;98.20
4374;DHT22;2201;51.100;6.814;2023-02-04T08:52:22;7.90;98.20
4374;DHT22;2201;51.100;6.814;2023-02-04T08:54:50;8.00;98.20
4374;DHT22;2201;51.100;6.814;2023-02-04T08:57:17;8.00;98.20
4374;DHT22;2201;51.100;6.814;2023-02-04T08:59:46;8.10;98.20
4374;DHT22;2201;51.100;6.814;2023-02-04T09:02:13;8.10;98.20
4374;DHT22;2201;51.100;6.814;2023-02-04T09:04:40;8.20;98.20
4374;DHT22;2201;51.100;6.814;2023-02-04T09:07:07;8.30;98.20
4374;DHT22;2201;51.100;6.814;2023-02-04T09:09:35;8.30;98.20
4374;DHT22;2201;51.100;6.814;2023-02-04T09:12:02;8.40;98.20
4374;DHT22;2201;51.100;6.814;2023-02-04T09:14:29;8.50;98.20
4374;DHT22;2201;51.100;6.814;2023-02-04T09:16:58;8.60;98.20
4374;DHT22;2201;51.100;6.814;2023-02-04T09:19:26;8.60;98.20
4374;DHT22;2201;51.100;6.814;2023-02-04T09:21:53;8.70;98.20
4374;DHT22;2201;51.100;6.814;2023-02-04T09:24:21;8.70;98.20
4374;DHT22;2201;51.100;6.814;2023-02-04T09:26:50;8.80;98.20
4374;DHT22;2201;51.100;6.814;2023-02-04T09:29:21;8.80;98.20
4374;DHT22;2201;51.100;6.814;2023-02-04T09:31:48;8.80;98.20
4374;DHT22;2201;51.100;6.814;2023-02-04T09:34:17;8.90;98.20
4374;DHT22;2201;51.100;6.814;2023-02-04T09:36:44;8.90;98.20
4374;DHT22;2201;51.100;6.814;2023-02-04T09:39:11;8.90;98.20
4374;DHT22;2201;51.100;6.814;2023-02-04T09:41:39;9.00;98.20
4374;DHT22;2201;51.100;6.814;2023-02-04T09:44:23;9.00;98.20
4374;DHT22;2201;51.100;6.814;2023-02-04T09:46:59;9.00;98.20
4374;DHT22;2201;51.100;6.814;2023-02-04T09:49:28;9.10;98.20
4374;DHT22;2201;51.100;6.814;2023-02-04T09:51:55;9.10;98.20
4374;DHT22;2201;51.100;6.814;2023-02-04T09:54:23;9.20;98.20
4374;DHT22;2201;51.100;6.814;2023-02-04T09:57:03;9.20;98.20
4374;DHT22;2201;51.100;6.814;2023-02-04T09:59:52;9.30;98.20
4374;DHT22;2201;51.100;6.814;2023-02-04T10:02:34;9.30;98.20
4374;DHT22;2201;51.100;6.814;2023-02-04T10:05:02;9.40;98.20
4374;DHT22;2201;51.100;6.814;2023-02-04T10:07:29;9.40;98.20
4374;DHT22;2201;51.100;6.814;2023-02-04T10:09:57;9.40;98.20
4374;DHT22;2201;51.100;6.814;2023-02-04T10:12:40;9.40;98.20
4374;DHT22;2201;51.100;6.814;2023-02-04T10:15:32;9.50;98.20
4374;DHT22;2201;51.100;6.814;2023-02-04T10:18:17;9.50;98.20
4374;DHT22;2201;51.100;6.814;2023-02-04T10:21:28;9.60;98.20
4374;DHT22;2201;51.100;6.814;2023-02-04T10:25:19;9.60;98.20
4374;DHT22;2201;51.100;6.814;2023-02-04T10:29:55;9.70;98.20
4374;DHT22;2201;51.100;6.814;2023-02-04T10:32:27;9.70;98.20
4374;DHT22;2201;51.100;6.814;2023-02-04T10:34:59;9.80;98.20
4374;DHT22;2201;51.100;6.814;2023-02-04T10:37:27;9.80;98.20
4374;DHT22;2201;51.100;6.814;2023-02-04T10:39:56;9.90;98.20
4374;DHT22;2201;51.100;6.814;2023-02-04T10:42:25;9.90;98.20
4374;DHT22;2201;51.100;6.814;2023-02-04T10:44:52;9.90;98.20
4374;DHT22;2201;51.100;6.814;2023-02-04T10:47:20;9.90;98.20
4374;DHT22;2201;51.100;6.814;2023-02-04T10:49:52;10.00;98.20
4374;DHT22;2201;51.100;6.814;2023-02-04T10:52:22;10.00;98.20
4374;DHT22;2201;51.100;6.814;2023-02-04T10:54:51;10.10;98.20
4374;DHT22;2201;51.100;6.814;2023-02-04T10:57:21;10.30;98.20
4374;DHT22;2201;51.100;6.814;2023-02-04T10:59:50;10.30;98.20
4374;DHT22;2201;51.100;6.814;2023-02-04T11:02:33;10.40;98.20
4374;DHT22;2201;51.100;6.814;2023-02-04T11:05:03;10.50;98.20
4374;DHT22;2201;51.100;6.814;2023-02-04T11:07:32;10.60;98.20
4374;DHT22;2201;51.100;6.814;2023-02-04T11:10:01;10.60;98.20
4374;DHT22;2201;51.100;6.814;2023-02-04T11:12:40;10.70;98.20
4374;DHT22;2201;51.100;6.814;2023-02-04T11:15:41;10.80;98.20
4374;DHT22;2201;51.100;6.814;2023-02-04T11:18:11;10.90;98.20
4374;DHT22;2201;51.100;6.814;2023-02-04T11:20:39;11.00;98.20
4374;DHT22;2201;51.100;6.814;2023-02-04T11:23:28;11.10;98.20
4374;DHT22;2201;51.100;6.814;2023-02-04T11:26:07;11.10;98.20
4374;DHT22;2201;51.100;6.814;2023-02-04T11:31:40;11.00;98.20
4374;DHT22;2201;51.100;6.814;2023-02-04T11:34:11;11.00;98.20
4374;DHT22;2201;51.100;6.814;2023-02-04T11:36:54;11.10;98.20
4374;DHT22;2201;51.100;6.814;2023-02-04T11:39:21;11.10;98.20
4374;DHT22;2201;51.100;6.814;2023-02-04T11:41:51;11.20;98.20
4374;DHT22;2201;51.100;6.814;2023-02-04T11:44:19;11.20;98.20
4374;DHT22;2201;51.100;6.814;2023-02-04T11:46:49;11.30;98.20
4374;DHT22;2201;51.100;6.814;2023-02-04T11:49:19;11.40;98.20
4374;DHT22;2201;51.100;6.814;2023-02-04T11:51:48;11.40;98.20
4374;DHT22;2201;51.100;6.814;2023-02-04T11:54:17;11.40;98.20
4374;DHT22;2201;51.100;6.814;2023-02-04T11:56:45;11.50;98.20
4374;DHT22;2201;51.100;6.814;2023-02-04T11:59:14;11.50;98.20
4374;DHT22;2201;51.100;6.814;2023-02-04T12:01:44;11.50;98.20
4374;DHT22;2201;51.100;6.814;2023-02-04T12:04:22;11.60;98.20
4374;DHT22;2201;51.100;6.814;2023-02-04T12:07:03;11.70;98.20
4374;DHT22;2201;51.100;6.814;2023-02-04T12:12:55;11.90;98.20
4374;DHT22;2201;51.100;6.814;2023-02-04T12:15:30;12.00;98.20
4374;DHT22;2201;51.100;6.814;2023-02-04T12:18:01;12.10;98.20
4374;DHT22;2201;51.100;6.814;2023-02-04T12:20:28;12.10;98.20
4374;DHT22;2201;51.100;6.814;2023-02-04T12:22:55;12.10;98.20
4374;DHT22;2201;51.100;6.814;2023-02-04T12:25:22;12.10;98.20
4374;DHT22;2201;51.100;6.814;2023-02-04T12:27:51;12.10;98.20
4374;DHT22;2201;51.100;6.814;2023-02-04T12:30:19;12.20;98.20
4374;DHT22;2201;51.100;6.814;2023-02-04T12:32:48;12.20;98.20
4374;DHT22;2201;51.100;6.814;2023-02-04T12:35:15;12.20;98.20
4374;DHT22;2201;51.100;6.814;2023-02-04T12:37:43;12.20;98.20
4374;DHT22;2201;51.100;6.814;2023-02-04T12:40:13;12.20;98.20
4374;DHT22;2201;51.100;6.814;2023-02-04T12:42:41;12.30;98.20
4374;DHT22;2201;51.100;6.814;2023-02-04T12:45:09;12.30;98.20
4374;DHT22;2201;51.100;6.814;2023-02-04T12:47:37;12.30;98.20
4374;DHT22;2201;51.100;6.814;2023-02-04T12:50:07;12.40;98.20
4374;DHT22;2201;51.100;6.814;2023-02-04T12:52:35;12.50;98.20
4374;DHT22;2201;51.100;6.814;2023-02-04T12:55:04;12.70;98.20
4374;DHT22;2201;51.100;6.814;2023-02-04T12:57:32;12.80;98.20
4374;DHT22;2201;51.100;6.814;2023-02-04T12:59:59;12.90;98.20
4374;DHT22;2201;51.100;6.814;2023-02-04T13:02:27;12.90;98.20
4374;DHT22;2201;51.100;6.814;2023-02-04T13:04:54;12.90;98.20
4374;DHT22;2201;51.100;6.814;2023-02-04T13:07:22;13.00;98.20
4374;DHT22;2201;51.100;6.814;2023-02-04T13:09:49;12.90;98.20
4374;DHT22;2201;51.100;6.814;2023-02-04T13:12:22;12.90;98.20
4374;DHT22;2201;51.100;6.814;2023-02-04T13:14:56;12.90;98.20
4374;DHT22;2201;51.100;6.814;2023-02-04T13:17:27;12.80;98.20
4374;DHT22;2201;51.100;6.814;2023-02-04T13:20:17;12.80;98.20
4374;DHT22;2201;51.100;6.814;2023-02-04T13:23:26;12.70;98.20
4374;DHT22;2201;51.100;6.814;2023-02-04T13:26:11;12.70;98.20
4374;DHT22;2201;51.100;6.814;2023-02-04T13:31:34;12.60;98.20
4374;DHT22;2201;51.100;6.814;2023-02-04T13:34:04;12.50;98.20
4374;DHT22;2201;51.100;6.814;2023-02-04T13:36:31;12.40;98.20
4374;DHT22;2201;51.100;6.814;2023-02-04T13:39:00;12.30;98.20
4374;DHT22;2201;51.100;6.814;2023-02-04T13:41:27;12.20;98.20
4374;DHT22;2201;51.100;6.814;2023-02-04T13:43:54;12.20;98.20
4374;DHT22;2201;51.100;6.814;2023-02-04T13:46:22;12.10;98.20
4374;DHT22;2201;51.100;6.814;2023-02-04T13:48:49;12.10;98.20
4374;DHT22;2201;51.100;6.814;2023-02-04T13:51:16;12.00;98.20
4374;DHT22;2201;51.100;6.814;2023-02-04T13:53:44;11.90;98.20
4374;DHT22;2201;51.100;6.814;2023-02-04T13:56:12;11.90;98.20
4374;DHT22;2201;51.100;6.814;2023-02-04T13:58:39;11.80;98.20
4374;DHT22;2201;51.100;6.814;2023-02-04T14:01:08;11.80;98.20
4374;DHT22;2201;51.100;6.814;2023-02-04T14:03:35;11.90;98.20
4374;DHT22;2201;51.100;6.814;2023-02-04T14:06:03;12.00;98.20
4374;DHT22;2201;51.100;6.814;2023-02-04T14:08:31;12.00;98.20
4374;DHT22;2201;51.100;6.814;2023-02-04T14:10:59;12.10;98.20
4374;DHT22;2201;51.100;6.814;2023-02-04T14:13:27;12.10;98.20
4374;DHT22;2201;51.100;6.814;2023-02-04T14:15:54;12.20;98.20
4374;DHT22;2201;51.100;6.814;2023-02-04T14:18:22;12.20;98.20
4374;DHT22;2201;51.100;6.814;2023-02-04T14:20:49;12.20;98.20
4374;DHT22;2201;51.100;6.814;2023-02-04T14:23:16;12.30;98.20
4374;DHT22;2201;51.100;6.814;2023-02-04T14:25:43;12.40;98.20
4374;DHT22;2201;51.100;6.814;2023-02-04T14:28:11;12.40;98.20
4374;DHT22;2201;51.100;6.814;2023-02-04T14:30:42;12.40;98.20
4374;DHT22;2201;51.100;6.814;2023-02-04T14:33:13;12.20;98.20
4374;DHT22;2201;51.100;6.814;2023-02-04T14:35:42;12.20;98.20
4374;DHT22;2201;51.100;6.814;2023-02-04T14:38:09;12.10;98.20
4374;DHT22;2201;51.100;6.814;2023-02-04T14:40:37;12.10;98.20
4374;DHT22;2201;51.100;6.814;2023-02-04T14:43:08;12.10;98.20
4374;DHT22;2201;51.100;6.814;2023-02-04T14:45:41;12.00;98.20
4374;DHT22;2201;51.100;6.814;2023-02-04T14:48:15;12.00;98.20
4374;DHT22;2201;51.100;6.814;2023-02-04T14:53:50;11.90;98.20
4374;DHT22;2201;51.100;6.814;2023-02-04T14:56:26;11.80;98.20
4374;DHT22;2201;51.100;6.814;2023-02-04T14:58:54;11.70;98.20
4374;DHT22;2201;51.100;6.814;2023-02-04T15:01:23;11.70;98.20
4374;DHT22;2201;51.100;6.814;2023-02-04T15:03:52;11.60;98.20
4374;DHT22;2201;51.100;6.814;2023-02-04T15:06:19;11.60;98.20
4374;DHT22;2201;51.100;6.814;2023-02-04T15:08:46;11.60;98.20
4374;DHT22;2201;51.100;6.814;2023-02-04T15:11:17;11.50;98.20
4374;DHT22;2201;51.100;6.814;2023-02-04T15:13:46;11.50;98.20
4374;DHT22;2201;51.100;6.814;2023-02-04T15:16:14;11.40;98.20
4374;DHT22;2201;51.100;6.814;2023-02-04T15:18:53;11.40;98.20
4374;DHT22;2201;51.100;6.814;2023-02-04T15:21:38;11.40;98.20
4374;DHT22;2201;51.100;6.814;2023-02-04T15:24:32;11.40;98.20
4374;DHT22;2201;51.100;6.814;2023-02-04T15:27:14;11.30;98.20
4374;DHT22;2201;51.100;6.814;2023-02-04T15:29:51;11.20;98.20
4374;DHT22;2201;51.100;6.814;2023-02-04T15:32:32;11.10;98.20
4374;DHT22;2201;51.100;6.814;2023-02-04T15:35:08;11.10;98.20
4374;DHT22;2201;51.100;6.814;2023-02-04T15:37:55;10.90;98.20
4374;DHT22;2201;51.100;6.814;2023-02-04T15:43:38;10.70;98.20
4374;DHT22;2201;51.100;6.814;2023-02-04T15:46:21;10.60;98.20
4374;DHT22;2201;51.100;6.814;2023-02-04T15:48:56;10.50;98.20
4374;DHT22;2201;51.100;6.814;2023-02-04T15:57:52;10.30;98.20
4374;DHT22;2201;51.100;6.814;2023-02-04T16:00:33;10.30;98.20
4374;DHT22;2201;51.100;6.814;2023-02-04T16:03:11;10.30;98.20
4374;DHT22;2201;51.100;6.814;2023-02-04T16:05:39;10.30;98.20
4374;DHT22;2201;51.100;6.814;2023-02-04T16:08:17;10.20;98.20
4374;DHT22;2201;51.100;6.814;2023-02-04T16:15:01;10.10;98.20
4374;DHT22;2201;51.100;6.814;2023-02-04T16:18:24;10.10;98.20
4374;DHT22;2201;51.100;6.814;2023-02-04T16:20:17;10.00;98.20
4374;DHT22;2201;51.100;6.814;2023-02-04T16:22:48;9.90;98.20
4374;DHT22;2201;51.100;6.814;2023-02-04T16:25:25;9.90;98.20
4374;DHT22;2201;51.100;6.814;2023-02-04T16:28:00;9.80;98.20
4374;DHT22;2201;51.100;6.814;2023-02-04T16:30:48;9.80;98.20
4374;DHT22;2201;51.100;6.814;2023-02-04T16:33:30;9.70;98.20
4374;DHT22;2201;51.100;6.814;2023-02-04T16:36:11;9.60;98.20
4374;DHT22;2201;51.100;6.814;2023-02-04T16:38:39;9.50;98.20
4374;DHT22;2201;51.100;6.814;2023-02-04T16:41:07;9.30;98.20
4374;DHT22;2201;51.100;6.814;2023-02-04T16:43:35;9.20;98.20
4374;DHT22;2201;51.100;6.814;2023-02-04T16:46:04;9.10;98.20
4374;DHT22;2201;51.100;6.814;2023-02-04T16:48:31;9.00;98.20
4374;DHT22;2201;51.100;6.814;2023-02-04T16:50:58;9.00;98.20
4374;DHT22;2201;51.100;6.814;2023-02-04T16:53:25;8.90;98.20
4374;DHT22;2201;51.100;6.814;2023-02-04T16:55:52;8.80;98.20
4374;DHT22;2201;51.100;6.814;2023-02-04T16:58:20;8.70;98.20